createdAt,value
2019-02-17T00:02:45.404Z,6.30
2019-02-17T00:07:38.258Z,6.20
2019-02-17T00:12:31.092Z,6.20
2019-02-17T00:17:24.054Z,6.10
2019-02-17T00:22:16.963Z,6.10
2019-02-17T00:27:09.823Z,6.10
2019-02-17T00:32:02.710Z,6.10
2019-02-17T00:36:55.569Z,6.00
2019-02-17T00:41:48.457Z,6.00
2019-02-17T00:46:41.327Z,6.00
2019-02-17T00:51:34.186Z,6.00
2019-02-17T00:56:27.045Z,5.90
2019-02-17T01:01:19.903Z,5.90
2019-02-17T01:06:12.796Z,5.90
2019-02-17T01:11:05.654Z,5.90
2019-02-17T01:15:59.639Z,5.80
2019-02-17T01:20:52.468Z,5.80
2019-02-17T01:25:45.460Z,5.80
2019-02-17T01:30:38.515Z,5.70
2019-02-17T01:35:31.398Z,5.70
2019-02-17T01:40:24.229Z,5.60
2019-02-17T01:45:17.130Z,5.50
2019-02-17T01:50:10.037Z,5.50
2019-02-17T01:55:03.147Z,5.40
2019-02-17T01:59:55.989Z,5.40
2019-02-17T02:04:48.856Z,5.40
2019-02-17T02:09:41.725Z,5.30
2019-02-17T02:14:34.595Z,5.20
2019-02-17T02:19:27.467Z,5.20
2019-02-17T02:24:20.298Z,5.20
2019-02-17T02:29:13.199Z,5.10
2019-02-17T02:34:06.084Z,5.30
2019-02-17T02:38:58.986Z,5.50
2019-02-17T02:43:51.925Z,5.60
2019-02-17T02:48:44.946Z,5.60
2019-02-17T02:53:37.840Z,5.60
2019-02-17T02:58:31.149Z,5.50
2019-02-17T03:03:24.005Z,5.50
2019-02-17T03:08:16.874Z,5.50
2019-02-17T03:13:09.740Z,5.50
2019-02-17T03:18:02.644Z,5.50
2019-02-17T03:22:55.512Z,5.50
2019-02-17T03:27:48.385Z,5.50
2019-02-17T03:32:41.271Z,5.50
2019-02-17T03:37:34.126Z,5.50
2019-02-17T03:42:27.042Z,5.40
2019-02-17T03:47:19.900Z,5.30
2019-02-17T03:52:12.799Z,5.40
2019-02-17T03:57:05.672Z,5.40
2019-02-17T04:01:58.646Z,5.20
2019-02-17T04:06:51.547Z,5.20
2019-02-17T04:11:44.390Z,5.10
2019-02-17T04:16:37.287Z,5.00
2019-02-17T04:21:30.130Z,5.00
2019-02-17T04:26:23.023Z,5.00
2019-02-17T04:31:15.943Z,5.00
2019-02-17T04:36:08.813Z,5.00
2019-02-17T04:41:01.684Z,5.10
2019-02-17T04:45:54.542Z,5.00
2019-02-17T04:50:48.591Z,5.10
2019-02-17T04:55:41.439Z,5.00
2019-02-17T05:00:40.117Z,5.00
2019-02-17T05:05:29.060Z,4.90
2019-02-17T05:10:21.945Z,4.90
2019-02-17T05:15:14.780Z,4.80
2019-02-17T05:20:08.536Z,4.80
2019-02-17T05:25:01.383Z,4.70
2019-02-17T05:29:54.263Z,4.70
2019-02-17T05:34:47.092Z,4.60
2019-02-17T05:39:39.962Z,4.70
2019-02-17T05:44:32.839Z,4.60
2019-02-17T05:49:25.728Z,4.60
2019-02-17T05:54:18.533Z,4.50
2019-02-17T05:59:11.411Z,4.60
2019-02-17T06:04:04.374Z,4.50
2019-02-17T06:08:58.763Z,4.50
2019-02-17T06:13:51.645Z,4.50
2019-02-17T06:18:44.496Z,4.50
2019-02-17T06:23:37.366Z,4.50
2019-02-17T06:28:30.262Z,4.60
2019-02-17T06:33:25.004Z,4.60
2019-02-17T06:38:17.928Z,4.60
2019-02-17T06:43:10.799Z,4.70
2019-02-17T06:48:03.705Z,4.70
2019-02-17T06:52:56.591Z,4.70
2019-02-17T06:57:49.495Z,4.70
2019-02-17T07:02:42.348Z,4.70
2019-02-17T07:07:35.210Z,4.80
2019-02-17T07:12:28.092Z,4.80
2019-02-17T07:17:20.938Z,4.80
2019-02-17T07:22:13.814Z,5.00
2019-02-17T07:27:06.702Z,5.10
2019-02-17T07:31:59.548Z,5.10
2019-02-17T07:36:52.423Z,5.30
2019-02-17T07:41:45.257Z,5.70
2019-02-17T07:46:38.133Z,6.40
2019-02-17T07:51:30.985Z,7.30
2019-02-17T07:56:23.852Z,7.60
2019-02-17T08:01:16.719Z,8.00
2019-02-17T08:06:09.610Z,8.30
2019-02-17T08:11:04.326Z,8.80
2019-02-17T08:15:57.248Z,8.70
2019-02-17T08:20:50.180Z,9.00
2019-02-17T08:25:43.054Z,9.20
2019-02-17T08:30:35.965Z,9.00
2019-02-17T08:35:28.843Z,9.20
2019-02-17T08:40:21.709Z,9.60
2019-02-17T08:45:14.582Z,9.50
2019-02-17T08:50:09.420Z,10.00
2019-02-17T08:55:02.314Z,10.20
2019-02-17T08:59:55.156Z,10.30
2019-02-17T09:04:49.833Z,10.30
2019-02-17T09:09:42.700Z,10.30
2019-02-17T09:14:35.598Z,10.60
2019-02-17T09:19:28.461Z,10.60
2019-02-17T09:24:21.422Z,10.40
2019-02-17T09:29:14.252Z,10.80
2019-02-17T09:34:07.115Z,10.90
2019-02-17T09:38:59.998Z,11.30
2019-02-17T09:43:52.847Z,11.20
2019-02-17T09:48:45.707Z,11.00
2019-02-17T09:53:38.585Z,11.30
2019-02-17T09:58:31.811Z,11.60
2019-02-17T10:03:24.663Z,11.40
2019-02-17T10:08:17.557Z,11.50
2019-02-17T10:13:10.427Z,11.60
2019-02-17T10:18:03.316Z,11.60
2019-02-17T10:35:25.095Z,11.70
2019-02-17T10:40:17.993Z,11.60
2019-02-17T10:45:11.321Z,11.80
2019-02-17T10:50:04.614Z,11.60
2019-02-17T10:54:57.509Z,11.70
2019-02-17T10:59:50.399Z,11.80
2019-02-17T11:04:43.255Z,12.20
2019-02-17T11:09:36.196Z,12.50
2019-02-17T11:14:29.064Z,12.60
2019-02-17T11:19:21.947Z,12.80
2019-02-17T11:24:15.405Z,12.70
2019-02-17T11:29:08.337Z,12.80
2019-02-17T11:34:01.257Z,13.00
2019-02-17T11:38:54.317Z,13.00
2019-02-17T11:43:48.727Z,13.10
2019-02-17T11:48:43.144Z,13.40
2019-02-17T11:53:36.041Z,13.70
2019-02-17T11:58:28.913Z,13.70
2019-02-17T12:03:22.174Z,13.90
2019-02-17T12:08:15.087Z,14.00
2019-02-17T12:13:07.976Z,14.30
2019-02-17T12:18:00.837Z,14.30
2019-02-17T12:22:58.580Z,14.40
2019-02-17T12:28:02.492Z,14.60
2019-02-17T12:32:55.419Z,14.90
2019-02-17T12:37:48.320Z,14.90
2019-02-17T12:42:41.206Z,15.10
2019-02-17T12:47:34.063Z,15.20
2019-02-17T12:52:26.929Z,15.30
2019-02-17T12:57:19.802Z,15.20
2019-02-17T13:02:12.754Z,15.30
2019-02-17T13:07:05.598Z,15.60
2019-02-17T13:12:00.491Z,15.80
2019-02-17T13:16:53.355Z,15.80
2019-02-17T13:21:46.241Z,16.00
2019-02-17T13:26:40.877Z,15.90
2019-02-17T13:31:33.792Z,15.80
2019-02-17T13:36:26.657Z,15.70
2019-02-17T13:41:19.565Z,15.70
2019-02-17T13:46:12.519Z,15.80
2019-02-17T13:51:05.406Z,15.90
2019-02-17T13:55:58.282Z,15.90
2019-02-17T14:00:51.159Z,16.00
2019-02-17T14:05:44.049Z,16.00
2019-02-17T14:10:36.946Z,16.10
2019-02-17T14:15:31.478Z,16.10
2019-02-17T14:20:24.361Z,16.10
2019-02-17T14:25:17.255Z,16.10
2019-02-17T14:30:11.187Z,16.10
2019-02-17T14:35:04.357Z,16.20
2019-02-17T14:39:57.272Z,16.30
2019-02-17T14:44:50.149Z,16.30
2019-02-17T14:49:43.055Z,16.30
2019-02-17T14:54:35.972Z,16.30
2019-02-17T14:59:30.662Z,16.30
2019-02-17T15:04:23.558Z,16.30
2019-02-17T15:09:17.667Z,16.30
2019-02-17T15:14:10.542Z,16.30
2019-02-17T15:19:03.486Z,16.20
2019-02-17T15:23:56.719Z,16.10
2019-02-17T15:28:51.317Z,16.10
2019-02-17T15:33:44.518Z,15.90
2019-02-17T15:38:37.409Z,15.80
2019-02-17T15:43:30.262Z,15.70
2019-02-17T15:48:24.258Z,15.60
2019-02-17T15:53:17.130Z,15.60
2019-02-17T15:58:10.017Z,15.50
2019-02-17T16:03:02.890Z,15.40
2019-02-17T16:07:55.765Z,15.30
2019-02-17T16:12:48.655Z,15.20
2019-02-17T16:17:41.588Z,15.10
2019-02-17T16:22:34.456Z,15.00
2019-02-17T16:27:27.311Z,14.80
2019-02-17T16:32:21.728Z,14.70
2019-02-17T16:37:14.743Z,14.50
2019-02-17T16:42:07.643Z,14.30
2019-02-17T16:47:00.510Z,14.20
2019-02-17T16:51:53.372Z,14.10
2019-02-17T16:56:46.281Z,13.90
2019-02-17T17:01:39.176Z,13.70
2019-02-17T17:06:32.138Z,13.60
2019-02-17T17:11:25.009Z,13.40
2019-02-17T17:16:17.877Z,13.30
2019-02-17T17:21:10.782Z,13.20
2019-02-17T17:26:04.335Z,13.00
2019-02-17T17:30:57.273Z,12.80
2019-02-17T17:35:50.149Z,12.60
2019-02-17T17:40:43.121Z,12.50
2019-02-17T17:45:36.024Z,12.40
2019-02-17T17:50:30.108Z,12.20
2019-02-17T17:55:23.091Z,12.10
2019-02-17T18:00:31.840Z,12.00
2019-02-17T18:05:25.230Z,11.90
2019-02-17T18:10:18.117Z,12.00
2019-02-17T18:15:12.136Z,11.90
2019-02-17T18:20:06.293Z,11.80
2019-02-17T18:24:59.187Z,11.80
2019-02-17T18:29:52.056Z,11.80
2019-02-17T18:34:44.999Z,11.70
2019-02-17T18:39:37.887Z,11.60
2019-02-17T18:44:30.811Z,11.50
2019-02-17T18:49:23.681Z,11.50
2019-02-17T18:54:16.805Z,11.50
2019-02-17T18:59:10.800Z,11.50
2019-02-17T19:04:03.930Z,11.50
2019-02-17T19:08:56.832Z,11.40
2019-02-17T19:13:49.732Z,11.40
2019-02-17T19:18:42.665Z,11.60
2019-02-17T19:23:35.555Z,11.40
2019-02-17T19:28:28.461Z,11.30
2019-02-17T19:33:21.369Z,11.20
2019-02-17T19:38:14.219Z,11.30
2019-02-17T19:43:07.109Z,11.10
2019-02-17T19:47:59.987Z,11.00
2019-02-17T19:52:52.871Z,10.80
2019-02-17T19:57:45.761Z,10.70
2019-02-17T20:03:04.467Z,10.60
2019-02-17T20:07:57.323Z,10.40
2019-02-17T20:12:50.218Z,10.20
2019-02-17T20:17:43.124Z,10.20
2019-02-17T20:22:35.977Z,10.10
2019-02-17T20:27:28.935Z,9.80
2019-02-17T20:32:21.925Z,9.80
2019-02-17T20:37:15.304Z,9.80
2019-02-17T20:42:09.258Z,9.70
2019-02-17T20:47:02.140Z,9.60
2019-02-17T20:51:58.771Z,9.60
2019-02-17T20:56:52.387Z,9.60
2019-02-17T21:01:45.240Z,9.60
2019-02-17T21:06:38.353Z,9.50
2019-02-17T21:11:33.606Z,9.40
2019-02-17T21:16:26.556Z,9.40
2019-02-17T21:21:19.451Z,9.30
2019-02-17T21:26:12.357Z,9.30
2019-02-17T21:31:05.223Z,9.20
2019-02-17T21:35:58.135Z,9.10
2019-02-17T21:40:51.059Z,9.00
2019-02-17T21:45:45.392Z,8.90
2019-02-17T21:50:38.273Z,8.90
2019-02-17T21:55:31.144Z,8.70
2019-02-17T22:00:24.006Z,8.60
2019-02-17T22:05:17.192Z,8.50
2019-02-17T22:10:11.048Z,8.50
2019-02-17T22:15:05.931Z,8.30
2019-02-17T22:19:58.828Z,8.30
2019-02-17T22:24:51.701Z,8.20
2019-02-17T22:29:46.199Z,8.10
2019-02-17T22:34:39.311Z,8.00
2019-02-17T22:39:33.385Z,7.90
2019-02-17T22:44:27.465Z,7.90
2019-02-17T22:49:21.897Z,7.80
2019-02-17T22:54:14.922Z,7.70
2019-02-17T22:59:07.790Z,7.60
2019-02-17T23:04:01.791Z,7.40
2019-02-17T23:08:54.735Z,7.40
2019-02-17T23:13:47.638Z,7.30
2019-02-17T23:18:40.516Z,7.20
2019-02-17T23:23:33.418Z,7.10
2019-02-17T23:28:28.592Z,7.10
2019-02-17T23:33:21.513Z,6.90
2019-02-17T23:38:14.366Z,6.80
2019-02-17T23:43:07.246Z,6.80
2019-02-17T23:48:00.111Z,6.70
2019-02-17T23:52:54.641Z,6.70
2019-02-17T23:57:49.556Z,6.60
